| time (UTC) | temp C | wind direction | speed KPH | gust KPH | rain 1hr cm | rain 24hr cm | rain mn cm | humidity % | barometer mb |
| 20260510030045 | 18 | 240 | 12.9 | 24.1 | 0.00 | 0.28 | 0.00 | 79 | 1009.2 |
| 20260510024540 | 18 | 203 | 9.7 | 20.9 | 0.00 | 0.43 | 0.00 | 81 | 1009.2 |
| 20260510023035 | 17 | 217 | 8.0 | 29.0 | 0.00 | 0.43 | 0.00 | 84 | 1009.2 |
| 20260510021635 | 17 | 240 | 12.9 | 25.7 | 0.00 | 0.43 | 0.00 | 81 | 1009.3 |
| 20260510020043 | 18 | 212 | 11.3 | 25.7 | 0.00 | 0.43 | 0.00 | 77 | 1009.2 |
| 20260510014553 | 17 | 224 | 12.9 | 27.4 | 0.00 | 0.46 | 0.00 | 76 | 1009.3 |
| 20260510013038 | 18 | 238 | 14.5 | 32.2 | 0.00 | 0.46 | 0.00 | 74 | 1009.3 |
| 20260510011536 | 18 | 278 | 12.9 | 33.8 | 0.00 | 0.46 | 0.00 | 75 | 1009.3 |
| 20260510010044 | 18 | 218 | 14.5 | 32.2 | 0.00 | 0.46 | 0.00 | 75 | 1009.2 |
| 20260510004542 | 18 | 263 | 16.1 | 29.0 | 0.00 | 0.46 | 0.00 | 75 | 1009.2 |
| 20260510003037 | 18 | 229 | 14.5 | 32.2 | 0.00 | 0.46 | 0.00 | 73 | 1009.4 |
| 20260510001546 | 18 | 226 | 14.5 | 35.4 | 0.00 | 0.46 | 0.00 | 73 | 1009.4 |
| 20260510000043 | 18 | 181 | 14.5 | 33.8 | 0.00 | 0.46 | 0.00 | 71 | 1009.4 |
| 20260509234542 | 18 | 221 | 17.7 | 33.8 | 0.00 | 0.46 | 0.00 | 72 | 1009.5 |
| 20260509233043 | 17 | 221 | 12.9 | 27.4 | 0.00 | 0.46 | 0.00 | 77 | 1009.6 |
| 20260509231541 | 18 | 239 | 16.1 | 33.8 | 0.00 | 0.46 | 0.00 | 73 | 1009.7 |
| 20260509230048 | 17 | 243 | 17.7 | 32.2 | 0.00 | 0.46 | 0.00 | 73 | 1009.6 |
| 20260509224541 | 17 | 229 | 16.1 | 33.8 | 0.00 | 0.46 | 0.00 | 79 | 1009.4 |
| 20260509223055 | 17 | 225 | 16.1 | 32.2 | 0.00 | 0.46 | 0.00 | 80 | 1009.5 |
| 20260509221539 | 16 | 237 | 11.3 | 27.4 | 0.00 | 0.46 | 0.00 | 83 | 1009.6 |
| 20260509220035 | 15 | 198 | 9.7 | 24.1 | 0.00 | 0.46 | 0.00 | 86 | 1009.4 |
| 20260509214538 | 17 | 228 | 16.1 | 29.0 | 0.00 | 0.43 | 0.00 | 76 | 1009.3 |
| 20260509213048 | 16 | 200 | 16.1 | 25.7 | 0.00 | 0.43 | 0.00 | 77 | 1009.1 |
| 20260509211538 | 16 | 245 | 8.0 | 20.9 | 0.00 | 0.43 | 0.00 | 82 | 1009.3 |
| 20260509210043 | 16 | 279 | 11.3 | 24.1 | 0.00 | 0.43 | 0.00 | 81 | 1009.1 |
| 20260509204542 | 15 | 232 | 8.0 | 17.7 | 0.00 | 0.43 | 0.00 | 81 | 1009.1 |
| 20260509203041 | 15 | 225 | 11.3 | 25.7 | 0.00 | 0.43 | 0.00 | 79 | 1009.1 |
| 20260509201540 | 15 | 229 | 11.3 | 24.1 | 0.00 | 0.43 | 0.00 | 77 | 1009.0 |
| 20260509200039 | 15 | 220 | 8.0 | 25.7 | 0.00 | 0.43 | 0.00 | 79 | 1008.8 |
| 20260509194551 | 15 | 179 | 12.9 | 22.5 | 0.00 | 0.43 | 0.00 | 80 | 1008.7 |
| 20260509193035 | 14 | 232 | 4.8 | 12.9 | 0.00 | 0.43 | 0.00 | 80 | 1008.5 |
| 20260509191542 | 15 | 203 | 6.4 | 14.5 | 0.00 | 0.43 | 0.00 | 79 | 1008.3 |
| 20260509190042 | 14 | 232 | 6.4 | 16.1 | 0.00 | 0.43 | 0.00 | 81 | 1008.2 |
| 20260509184537 | 14 | 203 | 6.4 | 16.1 | 0.00 | 0.43 | 0.00 | 81 | 1008.1 |
| 20260509183047 | 13 | 229 | 3.2 | 12.9 | 0.00 | 0.43 | 0.00 | 83 | 1007.9 |
| 20260509181545 | 14 | 185 | 4.8 | 11.3 | 0.00 | 0.43 | 0.00 | 83 | 1007.7 |
| 20260509180053 | 14 | 229 | 4.8 | 16.1 | 0.00 | 0.43 | 0.00 | 83 | 1007.6 |
| 20260509174545 | 14 | 242 | 8.0 | 17.7 | 0.00 | 0.46 | 0.00 | 82 | 1007.4 |
| 20260509173057 | 14 | 250 | 9.7 | 24.1 | 0.00 | 0.46 | 0.00 | 82 | 1007.2 |
| 20260509171544 | 14 | 244 | 11.3 | 24.1 | 0.00 | 0.46 | 0.00 | 82 | 1007.0 |
| 20260509170043 | 14 | 231 | 9.7 | 17.7 | 0.00 | 0.46 | 0.00 | 82 | 1006.9 |
| 20260509164542 | 14 | 240 | 9.7 | 19.3 | 0.00 | 0.46 | 0.00 | 80 | 1006.8 |
| 20260509163040 | 14 | 250 | 9.7 | 20.9 | 0.00 | 0.46 | 0.00 | 81 | 1006.7 |
| 20260509161551 | 14 | 238 | 8.0 | 19.3 | 0.00 | 0.46 | 0.00 | 83 | 1006.6 |
| 20260509160039 | 14 | 207 | 9.7 | 20.9 | 0.00 | 0.46 | 0.00 | 83 | 1006.7 |
| 20260509154542 | 13 | 198 | 8.0 | 16.1 | 0.00 | 0.46 | 0.00 | 85 | 1006.6 |
| 20260509153055 | 13 | 261 | 3.2 | 8.0 | 0.00 | 0.46 | 0.00 | 87 | 1006.8 |
| 20260509151541 | 13 | 172 | 3.2 | 8.0 | 0.00 | 0.46 | 0.00 | 87 | 1007.0 |
| 20260509150040 | 13 | 235 | 1.6 | 4.8 | 0.00 | 0.46 | 0.00 | 87 | 1006.9 |
| 20260509144539 | 13 | 220 | 3.2 | 8.0 | 0.00 | 0.46 | 0.00 | 87 | 1006.9 |
| 20260509143036 | 13 | 194 | 3.2 | 12.9 | 0.00 | 0.46 | 0.00 | 86 | 1007.0 |
| 20260509141540 | 13 | 241 | 4.8 | 12.9 | 0.00 | 0.46 | 0.00 | 87 | 1006.8 |
| 20260509140055 | 13 | 214 | 6.4 | 16.1 | 0.00 | 0.46 | 0.00 | 88 | 1006.9 |
| 20260509134537 | 13 | 243 | 6.4 | 12.9 | 0.00 | 0.46 | 0.00 | 89 | 1006.9 |
| 20260509133125 | 13 | 217 | 4.8 | 12.9 | 0.00 | 0.46 | 0.00 | 89 | 1006.8 |
| 20260509131535 | 13 | 261 | 4.8 | 11.3 | 0.00 | 0.46 | 0.00 | 90 | 1006.9 |
| 20260509130035 | 13 | 217 | 3.2 | 11.3 | 0.00 | 0.46 | 0.00 | 90 | 1006.7 |
| 20260509124549 | 13 | 228 | 3.2 | 9.7 | 0.00 | 0.46 | 0.00 | 90 | 1006.7 |
| 20260509123037 | 13 | 229 | 3.2 | 8.0 | 0.00 | 0.46 | 0.00 | 90 | 1006.8 |
| 20260509121536 | 13 | 210 | 4.8 | 9.7 | 0.00 | 0.46 | 0.00 | 90 | 1006.7 |
| 20260509120038 | 14 | 211 | 4.8 | 14.5 | 0.00 | 0.46 | 0.00 | 90 | 1006.6 |
| 20260509114537 | 14 | 249 | 6.4 | 14.5 | 0.00 | 0.51 | 0.46 | 90 | 1006.3 |
| 20260509113041 | 14 | 230 | 6.4 | 12.9 | 0.00 | 0.51 | 0.46 | 91 | 1006.4 |
| 20260509111539 | 13 | 242 | 4.8 | 11.3 | 0.00 | 0.51 | 0.46 | 91 | 1005.9 |
| 20260509110037 | 13 | 243 | 1.6 | 6.4 | 0.00 | 0.51 | 0.46 | 91 | 1006.0 |
| 20260509104538 | 14 | 0 | 0.0 | 4.8 | 0.00 | 1.09 | 0.46 | 91 | 1006.1 |
| 20260509103040 | 13 | 238 | 1.6 | 9.7 | 0.00 | 1.07 | 0.43 | 90 | 1006.4 |
| 20260509101536 | 13 | 274 | 3.2 | 6.4 | 0.00 | 1.07 | 0.43 | 90 | 1006.4 |
| 20260509100039 | 13 | 295 | 3.2 | 9.7 | 0.00 | 1.07 | 0.43 | 90 | 1006.6 |
| 20260509094543 | 13 | 274 | 3.2 | 6.4 | 0.00 | 1.22 | 0.43 | 90 | 1006.5 |
| 20260509093041 | 13 | 269 | 1.6 | 4.8 | 0.00 | 1.22 | 0.43 | 91 | 1006.6 |
| 20260509091546 | 13 | 0 | 0.0 | 4.8 | 0.00 | 1.22 | 0.43 | 91 | 1006.5 |
| 20260509090041 | 13 | 289 | 3.2 | 6.4 | 0.00 | 1.22 | 0.43 | 91 | 1006.3 |
| 20260509084542 | 13 | 312 | 4.8 | 8.0 | 0.00 | 1.30 | 0.43 | 91 | 1006.5 |
| 20260509083041 | 13 | 306 | 0.0 | 3.2 | 0.00 | 1.30 | 0.43 | 91 | 1006.3 |
| 20260509081536 | 13 | 278 | 0.0 | 3.2 | 0.00 | 1.30 | 0.43 | 91 | 1006.3 |
| 20260509080045 | 13 | 266 | 0.0 | 4.8 | 0.00 | 1.30 | 0.43 | 91 | 1006.1 |
| 20260509074548 | 13 | 0 | 0.0 | 1.6 | 0.00 | 1.37 | 0.43 | 91 | 1006.1 |
| 20260509073058 | 14 | 0 | 0.0 | 6.4 | 0.00 | 1.35 | 0.41 | 91 | 1006.0 |
| 20260509071549 | 14 | 224 | 1.6 | 4.8 | 0.00 | 1.35 | 0.41 | 91 | 1006.4 |
| 20260509070043 | 14 | 290 | 0.0 | 4.8 | 0.03 | 1.35 | 0.41 | 91 | 1006.3 |
| 20260509064537 | 15 | 314 | 1.6 | 3.2 | 0.03 | 1.35 | 0.41 | 91 | 1006.5 |
| 20260509063055 | 15 | 317 | 0.0 | 1.6 | 0.05 | 1.35 | 0.41 | 91 | 1006.4 |
| 20260509061540 | 15 | 0 | 0.0 | 0.0 | 0.08 | 1.32 | 0.38 | 91 | 1006.2 |
| 20260509060105 | 15 | 0 | 0.0 | 1.6 | 0.10 | 1.30 | 0.36 | 91 | 1006.4 |
| 20260509054540 | 15 | 0 | 0.0 | 1.6 | 0.10 | 1.30 | 0.36 | 90 | 1006.4 |
| 20260509053054 | 15 | 0 | 0.0 | 4.8 | 0.10 | 1.30 | 0.36 | 90 | 1006.5 |
| 20260509051546 | 15 | 272 | 1.6 | 6.4 | 0.05 | 1.22 | 0.28 | 90 | 1006.5 |
| 20260509050046 | 15 | 297 | 1.6 | 4.8 | 0.00 | 1.19 | 0.25 | 90 | 1006.3 |
| 20260509044539 | 15 | 283 | 0.0 | 6.4 | 0.03 | 1.19 | 0.25 | 90 | 1006.0 |
| 20260509043044 | 15 | 298 | 3.2 | 11.3 | 0.03 | 1.17 | 0.23 | 90 | 1006.3 |
| 20260509041536 | 15 | 303 | 4.8 | 11.3 | 0.05 | 1.17 | 0.23 | 90 | 1006.2 |
| 20260509040050 | 15 | 279 | 6.4 | 12.9 | 0.05 | 1.17 | 0.23 | 90 | 1006.2 |
| 20260509034542 | 15 | 267 | 3.2 | 6.4 | 0.03 | 1.14 | 0.20 | 91 | 1006.6 |
| 20260509033056 | 15 | 269 | 1.6 | 4.8 | 0.03 | 1.12 | 0.18 | 91 | 1006.5 |
| 20260509031539 | 15 | 282 | 1.6 | 3.2 | 0.13 | 1.12 | 0.18 | 90 | 1006.5 |